YSSY

Sydney Airport

Airport
ICAO code
YSSY
IATA Code
SYD
Summary
ICAO Region
APAC
ICAO Territory
Location

Mascot, New South Wales

Serving
Sydney
Elevation
21 ft
Coordinates
33° 56' 23" S , 151° 10' 32" E
KCC
Airport BS
Bird Strike
Metar
Observation
YSSY 280830Z AUTO 17005KT 9999 // SCT020 SCT091 SCT120 17/14 Q1012
Station
Sydney Airport
Date/Time
2022-09-28 08:30:00
Wind direction
170°
Wind speed
05 kts
Lowest cloud amount
scattered clouds
Temperature
17°C
Dew point
14°C
Humidity
82%
QNH
1012 hPa
Weather condition
n/a

SKYbrary Partners:

Safety knowledge contributed by: